Time;durP1;ratioP1;P1;durP2;ratioP2;P2;SDS_P1;SDS_P2;PMS_P1;PMS_P2;Temp;Humidity;BMP_temperature;BMP_pressure;BME280_temperature;BME280_humidity;BME280_pressure;Samples;Min_cycle;Max_cycle;Signal;HPM_P1;HPM_P2
2023/01/01 00:01:30;;;;;;;8.87;5.33;;;16.30;57.30;;;;;;5076106;27;20431;-86
2023/01/01 00:03:59;;;;;;;10.17;6.90;;;16.40;57.00;;;;;;5092305;28;20892;-87
2023/01/01 00:06:26;;;;;;;11.20;8.40;;;16.60;56.70;;;;;;5057049;27;20472;-89
2023/01/01 00:10:26;;;;;;;11.83;7.53;;;16.70;56.30;;;;;;5073766;28;20453;-87
2023/01/01 00:11:45;;;;;;;9.07;6.33;;;16.40;56.50;;;;;;5054984;28;20445;-88
2023/01/01 00:14:14;;;;;;;6.50;5.80;;;16.50;57.00;;;;;;5109306;27;20454;-86
2023/01/01 00:16:41;;;;;;;7.43;5.50;;;16.70;56.10;;;;;;5106863;27;20462;-88
2023/01/01 00:19:08;;;;;;;6.60;4.93;;;16.60;56.20;;;;;;5070120;28;21079;-88
2023/01/01 00:21:35;;;;;;;7.27;5.17;;;16.70;56.50;;;;;;5091095;28;20442;-88
2023/01/01 00:24:02;;;;;;;9.10;4.77;;;16.90;56.10;;;;;;5058172;28;20538;-89
2023/01/01 00:26:29;;;;;;;4.73;4.17;;;17.00;55.70;;;;;;5052913;28;20498;-87
2023/01/01 00:28:57;;;;;;;5.30;4.10;;;17.00;55.80;;;;;;5053928;28;20455;-87
2023/01/01 00:31:25;;;;;;;5.13;4.63;;;17.20;55.40;;;;;;5074657;27;20749;-89
2023/01/01 00:33:54;;;;;;;6.50;4.67;;;17.20;55.40;;;;;;5067627;28;20448;-89
2023/01/01 00:36:23;;;;;;;7.77;4.50;;;17.10;55.60;;;;;;5069735;27;20462;-87
2023/01/01 00:38:50;;;;;;;6.53;4.20;;;17.20;55.40;;;;;;5067859;28;20487;-87
2023/01/01 00:41:18;;;;;;;6.63;4.30;;;17.20;55.50;;;;;;5086581;28;20459;-88
2023/01/01 00:43:45;;;;;;;6.10;4.67;;;17.20;55.50;;;;;;5077870;27;20469;-86
2023/01/01 00:46:13;;;;;;;4.30;3.80;;;17.20;55.60;;;;;;5088641;28;20459;-88
2023/01/01 00:48:41;;;;;;;4.90;3.73;;;17.10;55.60;;;;;;5084688;27;20450;-89
2023/01/01 00:51:09;;;;;;;8.17;3.70;;;17.00;56.10;;;;;;5069733;28;20451;-90
2023/01/01 00:53:36;;;;;;;4.87;3.80;;;17.00;56.00;;;;;;5063427;27;20475;-87
2023/01/01 00:56:04;;;;;;;4.90;3.50;;;17.00;56.10;;;;;;5104756;27;20966;-87
2023/01/01 00:58:31;;;;;;;5.37;4.10;;;16.90;56.00;;;;;;5065315;28;20481;-85
2023/01/01 01:00:58;;;;;;;5.13;3.60;;;16.90;56.20;;;;;;5057358;28;20447;-86
2023/01/01 01:03:29;;;;;;;5.20;3.53;;;17.00;55.90;;;;;;5085908;28;20812;-89
2023/01/01 01:05:59;;;;;;;5.67;3.77;;;17.00;55.90;;;;;;5069495;28;20939;-86
2023/01/01 01:08:26;;;;;;;6.90;4.27;;;16.90;55.90;;;;;;5069393;28;20447;-86
2023/01/01 01:10:53;;;;;;;5.53;4.70;;;16.90;56.30;;;;;;5064678;28;20442;-85
2023/01/01 01:13:21;;;;;;;3.60;3.30;;;17.10;55.70;;;;;;5105343;27;20447;-88
2023/01/01 01:15:48;;;;;;;9.20;5.10;;;17.20;55.30;;;;;;5051394;28;20450;-86
2023/01/01 01:18:16;;;;;;;17.20;11.67;;;17.50;55.00;;;;;;5069810;28;20959;-89
2023/01/01 01:20:50;;;;;;;13.47;8.60;;;17.60;54.70;;;;;;5056452;27;20465;-87
2023/01/01 01:23:18;;;;;;;17.63;12.33;;;17.60;54.40;;;;;;5076964;28;20462;-86
2023/01/01 01:25:46;;;;;;;19.60;12.53;;;17.30;54.90;;;;;;5067000;28;20446;-88
2023/01/01 01:28:13;;;;;;;11.30;9.10;;;17.50;54.90;;;;;;5053309;28;20463;-87
2023/01/01 01:30:40;;;;;;;16.90;9.60;;;17.60;54.40;;;;;;5067633;27;20454;-88
2023/01/01 01:33:07;;;;;;;14.63;8.03;;;17.50;54.60;;;;;;5087014;28;20446;-86
2023/01/01 01:35:34;;;;;;;8.33;5.70;;;17.40;54.70;;;;;;5082939;27;20546;-89
2023/01/01 01:38:01;;;;;;;7.37;5.13;;;17.30;54.40;;;;;;5052442;28;20542;-86
2023/01/01 01:40:29;;;;;;;12.37;6.90;;;17.30;54.90;;;;;;5103288;28;20501;-88
2023/01/01 01:42:56;;;;;;;12.50;7.40;;;17.40;54.80;;;;;;5085769;28;20438;-89
2023/01/01 01:45:23;;;;;;;10.23;6.60;;;17.20;54.90;;;;;;5085578;28;20468;-88
2023/01/01 01:47:54;;;;;;;12.40;7.83;;;17.30;54.90;;;;;;5068318;28;20466;-89
2023/01/01 01:50:25;;;;;;;9.70;7.70;;;17.40;54.50;;;;;;5082097;28;20434;-89
2023/01/01 01:53:02;;;;;;;16.10;12.60;;;17.50;54.70;;;;;;5104719;28;20450;-88
2023/01/01 01:55:33;;;;;;;17.00;11.00;;;17.30;54.80;;;;;;5066924;28;20812;-88
2023/01/01 01:58:01;;;;;;;14.07;8.77;;;17.20;54.80;;;;;;5068649;28;20819;-87
2023/01/01 02:00:28;;;;;;;17.27;9.37;;;16.90;55.30;;;;;;5053783;27;20561;-86
2023/01/01 02:02:59;;;;;;;16.10;9.77;;;16.90;55.60;;;;;;5087819;28;20583;-88
2023/01/01 02:05:28;;;;;;;15.70;9.63;;;16.80;56.00;;;;;;5055208;27;20458;-87
2023/01/01 02:07:56;;;;;;;15.90;9.40;;;16.80;55.40;;;;;;5090592;27;20586;-89
2023/01/01 02:10:23;;;;;;;14.33;8.90;;;16.90;55.60;;;;;;5089737;28;20453;-88
2023/01/01 02:12:52;;;;;;;13.33;8.83;;;17.10;55.20;;;;;;5072593;28;20439;-88
2023/01/01 02:15:21;;;;;;;14.57;8.93;;;17.00;55.40;;;;;;5080821;28;20434;-87
2023/01/01 02:17:56;;;;;;;16.50;9.93;;;16.90;55.20;;;;;;5065493;27;20454;-88
2023/01/01 02:20:39;;;;;;;14.60;10.17;;;16.90;55.30;;;;;;5090241;28;20691;-85
2023/01/01 02:23:24;;;;;;;14.57;9.70;;;16.70;55.70;;;;;;5071873;28;20450;-88
2023/01/01 02:26:13;;;;;;;15.93;10.83;;;16.60;55.80;;;;;;5088147;27;20856;-87
2023/01/01 02:28:55;;;;;;;20.30;10.87;;;16.60;55.60;;;;;;5062630;27;20955;-89
2023/01/01 02:31:26;;;;;;;18.67;12.00;;;16.40;56.60;;;;;;5064222;28;20537;-89
2023/01/01 02:33:56;;;;;;;20.23;12.60;;;16.20;56.60;;;;;;5066159;27;20544;-87
2023/01/01 02:36:26;;;;;;;23.00;15.10;;;16.20;56.80;;;;;;5073083;28;21084;-85
2023/01/01 02:38:56;;;;;;;25.30;17.53;;;16.20;56.90;;;;;;5049247;28;21304;-87
2023/01/01 02:41:27;;;;;;;26.23;17.07;;;16.20;57.00;;;;;;5070374;28;20447;-87
2023/01/01 02:43:55;;;;;;;31.07;19.43;;;16.10;56.90;;;;;;5061568;28;20448;-86
2023/01/01 02:46:23;;;;;;;32.90;20.90;;;15.90;57.60;;;;;;5088647;28;20470;-88
2023/01/01 02:48:52;;;;;;;33.30;20.50;;;16.00;57.40;;;;;;5081320;28;20813;-86
2023/01/01 02:51:27;;;;;;;31.70;21.73;;;15.90;57.60;;;;;;5088565;28;20458;-86
2023/01/01 02:54:04;;;;;;;40.63;24.70;;;15.80;57.60;;;;;;5104042;28;21122;-87
2023/01/01 02:56:40;;;;;;;35.00;22.10;;;16.10;57.40;;;;;;5070287;28;21051;-88
2023/01/01 03:02:14;;;;;;;37.70;24.30;;;15.90;57.30;;;;;;5078856;28;20465;-88
2023/01/01 03:04:54;;;;;;;26.03;16.73;;;15.90;57.30;;;;;;5056932;28;20486;-87
2023/01/01 03:07:30;;;;;;;35.03;20.70;;;15.70;57.60;;;;;;5071524;28;20835;-87
2023/01/01 03:10:02;;;;;;;31.07;18.67;;;15.70;57.80;;;;;;5104941;28;20444;-87
2023/01/01 03:12:39;;;;;;;32.40;19.40;;;15.70;57.70;;;;;;5053999;27;20450;-88
2023/01/01 03:15:18;;;;;;;32.57;19.93;;;15.90;57.90;;;;;;5071394;28;20439;-87
2023/01/01 03:17:51;;;;;;;38.13;20.90;;;16.30;56.80;;;;;;5085835;28;20469;-88
2023/01/01 03:20:22;;;;;;;34.33;21.27;;;16.40;56.10;;;;;;5053887;28;20473;-88
2023/01/01 03:22:52;;;;;;;30.00;18.97;;;16.60;55.80;;;;;;5076142;28;20522;-87
2023/01/01 03:25:22;;;;;;;29.50;18.67;;;16.60;55.40;;;;;;5072528;28;20934;-87
2023/01/01 03:27:52;;;;;;;31.83;19.67;;;16.60;55.60;;;;;;5086787;28;20845;-87
2023/01/01 03:30:21;;;;;;;35.20;20.80;;;16.10;56.60;;;;;;5105188;28;20469;-86
2023/01/01 03:33:00;;;;;;;36.00;20.97;;;16.20;56.40;;;;;;5070337;28;20423;-87
2023/01/01 03:35:31;;;;;;;35.83;20.60;;;16.20;56.30;;;;;;5051000;27;20496;-86
2023/01/01 03:38:00;;;;;;;37.90;20.87;;;16.10;56.60;;;;;;5079711;28;20469;-86
2023/01/01 03:40:29;;;;;;;28.03;18.87;;;16.10;56.60;;;;;;5075335;28;20455;-86
2023/01/01 03:42:59;;;;;;;31.60;20.50;;;16.00;56.70;;;;;;5064014;28;20463;-86
2023/01/01 03:45:33;;;;;;;35.47;20.10;;;16.10;56.40;;;;;;5106677;28;20450;-86
2023/01/01 03:48:01;;;;;;;32.10;20.67;;;15.90;56.90;;;;;;5086748;28;20468;-86
2023/01/01 03:50:35;;;;;;;31.70;20.10;;;15.90;56.90;;;;;;5076188;28;20447;-87
2023/01/01 03:53:08;;;;;;;35.93;22.07;;;16.10;57.20;;;;;;5053586;28;20538;-89
2023/01/01 03:55:38;;;;;;;33.13;21.13;;;16.10;56.70;;;;;;5087117;28;20450;-87
2023/01/01 03:58:12;;;;;;;31.03;19.80;;;16.00;57.00;;;;;;5087495;28;20871;-88
2023/01/01 04:00:46;;;;;;;32.20;21.63;;;15.90;57.30;;;;;;5084740;28;20475;-85
2023/01/01 04:03:18;;;;;;;36.83;21.93;;;16.20;56.80;;;;;;5062567;28;20451;-86
2023/01/01 04:05:45;;;;;;;32.43;18.50;;;16.30;56.30;;;;;;5045486;28;20451;-88
2023/01/01 04:08:14;;;;;;;30.80;20.60;;;16.30;56.00;;;;;;5075730;28;20470;-87
2023/01/01 04:10:45;;;;;;;32.17;18.57;;;16.20;56.60;;;;;;5081965;28;20455;-87
2023/01/01 04:13:12;;;;;;;28.37;17.63;;;16.00;56.90;;;;;;5070912;28;20443;-87
2023/01/01 04:15:40;;;;;;;27.80;18.13;;;16.10;56.80;;;;;;5086370;28;20439;-87
2023/01/01 04:18:08;;;;;;;28.00;18.10;;;16.30;56.40;;;;;;5055042;28;20818;-86
2023/01/01 04:20:35;;;;;;;30.30;16.40;;;16.20;56.30;;;;;;5063969;28;21113;-86
2023/01/01 04:23:02;;;;;;;31.03;16.77;;;16.20;56.50;;;;;;5084660;28;20492;-89
2023/01/01 04:25:30;;;;;;;33.27;19.47;;;16.10;56.50;;;;;;5068718;28;20848;-85
2023/01/01 04:27:58;;;;;;;29.00;16.37;;;16.10;56.60;;;;;;5058391;28;20463;-90
2023/01/01 04:30:25;;;;;;;26.23;18.30;;;16.20;56.40;;;;;;5070747;28;21011;-86
2023/01/01 04:32:54;;;;;;;26.87;16.63;;;16.10;56.20;;;;;;5060615;27;20545;-90
2023/01/01 04:35:21;;;;;;;26.13;16.90;;;15.90;56.90;;;;;;5055763;28;20447;-87
2023/01/01 04:37:48;;;;;;;28.40;17.67;;;16.00;56.80;;;;;;5067471;28;20637;-87
2023/01/01 04:40:15;;;;;;;32.30;18.83;;;16.00;56.70;;;;;;5104477;28;20470;-87
2023/01/01 04:42:43;;;;;;;29.30;18.63;;;15.90;56.80;;;;;;5050300;27;20538;-87
2023/01/01 04:45:13;;;;;;;27.30;16.07;;;15.80;57.00;;;;;;5070253;28;20447;-87
2023/01/01 04:47:41;;;;;;;30.00;16.60;;;15.70;57.00;;;;;;5064854;27;20890;-88
2023/01/01 04:50:09;;;;;;;32.17;18.27;;;15.70;57.10;;;;;;5101353;28;20504;-87
2023/01/01 04:52:37;;;;;;;28.33;17.40;;;15.80;57.10;;;;;;5076995;28;20450;-86
2023/01/01 04:55:04;;;;;;;27.97;16.27;;;15.70;57.10;;;;;;5069906;28;20447;-87
2023/01/01 04:57:31;;;;;;;26.13;15.33;;;15.90;56.70;;;;;;5066059;28;21017;-87
2023/01/01 04:59:59;;;;;;;25.77;15.70;;;16.10;56.30;;;;;;5060163;28;20473;-86
2023/01/01 05:02:26;;;;;;;26.90;17.50;;;16.00;56.50;;;;;;5084782;28;20458;-88
2023/01/01 05:04:53;;;;;;;21.30;13.90;;;16.10;56.20;;;;;;5067826;28;20558;-86
2023/01/01 05:07:21;;;;;;;28.60;15.70;;;16.10;56.60;;;;;;5086169;28;20462;-87
2023/01/01 05:09:48;;;;;;;30.60;17.57;;;16.10;56.10;;;;;;5067031;28;20451;-86
2023/01/01 05:12:16;;;;;;;25.13;16.97;;;15.90;56.40;;;;;;5068832;28;20821;-86
2023/01/01 05:14:43;;;;;;;25.90;15.57;;;15.60;56.90;;;;;;5067830;27;20534;-87
2023/01/01 05:17:10;;;;;;;26.97;15.40;;;15.50;57.20;;;;;;5069512;28;20501;-87
2023/01/01 05:19:37;;;;;;;28.07;17.20;;;15.60;56.80;;;;;;5068219;27;20450;-85
2023/01/01 05:22:04;;;;;;;23.40;15.60;;;15.50;57.40;;;;;;5069650;28;20540;-88
2023/01/01 05:24:35;;;;;;;31.10;18.50;;;15.30;57.10;;;;;;5069881;28;20946;-84
2023/01/01 05:27:02;;;;;;;28.30;17.27;;;15.20;57.60;;;;;;5103788;28;20543;-85
2023/01/01 05:29:29;;;;;;;21.50;13.70;;;15.30;57.60;;;;;;5070866;28;20461;-86
2023/01/01 05:31:56;;;;;;;24.97;15.43;;;15.30;57.50;;;;;;5101388;27;20525;-86
2023/01/01 05:34:24;;;;;;;29.03;15.07;;;15.40;57.40;;;;;;5066860;28;20809;-89
2023/01/01 05:36:51;;;;;;;23.40;15.00;;;15.30;57.40;;;;;;5064361;28;20605;-88
2023/01/01 05:39:18;;;;;;;23.00;14.60;;;15.40;57.30;;;;;;5084974;28;20451;-86
2023/01/01 05:41:46;;;;;;;28.20;15.67;;;15.50;57.10;;;;;;5082778;28;20470;-88
2023/01/01 05:44:15;;;;;;;22.90;14.90;;;15.40;57.30;;;;;;5053065;28;20907;-87
2023/01/01 05:46:42;;;;;;;24.07;14.00;;;15.30;57.40;;;;;;5060506;28;20481;-87
2023/01/01 05:49:11;;;;;;;26.30;14.20;;;15.40;57.30;;;;;;5084270;28;20497;-86
2023/01/01 05:51:38;;;;;;;27.73;15.37;;;15.50;57.30;;;;;;5066292;28;20455;-85
2023/01/01 05:54:05;;;;;;;21.50;14.10;;;15.60;56.90;;;;;;5056425;28;20529;-89
2023/01/01 05:56:32;;;;;;;23.07;15.07;;;15.70;56.70;;;;;;5067062;28;20466;-86
2023/01/01 05:59:01;;;;;;;21.10;14.43;;;15.60;57.10;;;;;;5060319;28;20816;-88
2023/01/01 06:01:30;;;;;;;24.90;14.97;;;15.50;57.00;;;;;;5054391;28;20459;-88
2023/01/01 06:03:59;;;;;;;21.73;12.73;;;15.40;57.20;;;;;;5077634;28;20824;-88
2023/01/01 06:06:28;;;;;;;22.80;11.83;;;15.30;57.60;;;;;;5062229;28;21148;-87
2023/01/01 06:08:56;;;;;;;23.93;14.27;;;15.30;57.40;;;;;;5067086;28;20443;-87
2023/01/01 06:11:24;;;;;;;20.00;11.97;;;15.30;57.60;;;;;;5061149;28;20454;-87
2023/01/01 06:13:52;;;;;;;19.00;11.73;;;15.20;58.00;;;;;;5082016;28;20446;-87
2023/01/01 06:16:21;;;;;;;20.83;12.33;;;15.20;58.00;;;;;;5067684;28;20455;-87
2023/01/01 06:18:48;;;;;;;18.40;11.10;;;15.30;57.70;;;;;;5066236;28;20812;-89
2023/01/01 06:21:17;;;;;;;20.63;12.20;;;15.30;57.60;;;;;;5060851;28;20459;-86
2023/01/01 06:23:44;;;;;;;17.93;11.83;;;15.50;57.00;;;;;;5069389;28;20468;-87
2023/01/01 06:26:13;;;;;;;17.43;11.00;;;15.50;56.60;;;;;;5082590;28;20447;-86
2023/01/01 06:28:42;;;;;;;16.97;10.17;;;15.60;56.70;;;;;;5063332;28;20450;-87
2023/01/01 06:31:11;;;;;;;15.93;9.40;;;15.60;56.70;;;;;;5049535;28;20444;-87
2023/01/01 06:33:40;;;;;;;17.03;10.30;;;15.40;56.60;;;;;;5054119;28;20446;-86
2023/01/01 06:36:10;;;;;;;14.20;8.83;;;15.40;56.90;;;;;;5057998;28;20957;-87
2023/01/01 06:38:39;;;;;;;12.63;9.33;;;15.50;56.70;;;;;;5072793;28;20477;-88
2023/01/01 06:41:10;;;;;;;11.70;8.70;;;15.60;56.40;;;;;;5071369;28;20523;-88
2023/01/01 06:43:38;;;;;;;11.93;7.73;;;15.50;56.30;;;;;;5068509;28;20450;-88
2023/01/01 06:46:07;;;;;;;11.67;7.50;;;15.50;56.30;;;;;;5107464;28;20814;-87
2023/01/01 06:48:36;;;;;;;8.37;7.07;;;15.50;55.80;;;;;;5056873;28;20477;-86
2023/01/01 06:51:08;;;;;;;23.17;7.40;;;15.40;56.40;;;;;;5074603;28;20972;-89
2023/01/01 06:53:35;;;;;;;12.10;7.10;;;15.30;56.30;;;;;;5072551;28;20568;-85
2023/01/01 06:56:03;;;;;;;11.37;7.10;;;15.30;56.20;;;;;;5085967;28;20996;-86
2023/01/01 06:58:30;;;;;;;8.47;6.20;;;15.40;56.10;;;;;;5054758;28;21009;-87
2023/01/01 07:01:04;;;;;;;8.93;7.13;;;15.50;56.20;;;;;;5090825;27;20546;-87
2023/01/01 07:03:31;;;;;;;15.43;7.20;;;15.40;56.20;;;;;;5059544;28;20464;-86
2023/01/01 07:05:58;;;;;;;13.27;7.37;;;15.40;56.30;;;;;;5072385;28;20443;-88
2023/01/01 07:08:26;;;;;;;9.67;6.40;;;15.50;56.10;;;;;;5061188;28;20445;-87
2023/01/01 07:10:56;;;;;;;9.70;6.40;;;15.40;56.50;;;;;;5076608;27;20451;-86
2023/01/01 07:13:23;;;;;;;10.93;6.30;;;15.50;56.20;;;;;;5091523;28;21257;-87
2023/01/01 07:15:50;;;;;;;9.47;6.00;;;15.70;55.60;;;;;;5054240;28;20442;-87
2023/01/01 07:18:18;;;;;;;8.87;5.93;;;15.70;55.70;;;;;;5091303;28;20638;-87
2023/01/01 07:20:49;;;;;;;8.67;6.10;;;15.70;55.50;;;;;;5064876;27;20475;-86
2023/01/01 07:23:16;;;;;;;10.50;6.47;;;15.90;55.20;;;;;;5074732;28;20431;-87
2023/01/01 07:25:44;;;;;;;10.33;5.90;;;15.80;55.40;;;;;;5072110;27;20444;-87
2023/01/01 07:28:12;;;;;;;8.60;5.57;;;15.70;55.00;;;;;;5088894;28;20467;-86
2023/01/01 07:30:39;;;;;;;9.87;5.70;;;15.50;55.40;;;;;;5066248;28;20451;-88
2023/01/01 07:33:06;;;;;;;7.23;5.77;;;15.50;55.40;;;;;;5077978;28;20450;-86
2023/01/01 07:35:33;;;;;;;9.70;5.30;;;15.50;55.30;;;;;;5074080;28;20488;-86
2023/01/01 07:38:00;;;;;;;11.33;5.63;;;15.80;55.10;;;;;;5066547;28;20477;-87
2023/01/01 07:40:27;;;;;;;8.50;6.03;;;15.60;55.20;;;;;;5108498;27;20538;-88
2023/01/01 07:42:55;;;;;;;8.33;5.47;;;15.80;55.00;;;;;;5072792;28;20554;-86
2023/01/01 07:45:22;;;;;;;12.00;7.57;;;16.10;54.40;;;;;;5105992;28;20927;-86
2023/01/01 07:47:53;;;;;;;13.60;9.10;;;16.20;53.80;;;;;;5088949;28;20458;-87
2023/01/01 07:50:21;;;;;;;14.33;8.00;;;16.30;53.90;;;;;;5055880;28;20467;-86
2023/01/01 07:52:48;;;;;;;8.53;5.40;;;16.10;53.60;;;;;;5106141;27;20450;-87
2023/01/01 07:55:17;;;;;;;8.23;4.60;;;16.00;54.60;;;;;;5078331;28;20500;-86
2023/01/01 07:57:45;;;;;;;7.90;4.23;;;15.90;54.30;;;;;;5061169;28;20476;-87
2023/01/01 08:00:16;;;;;;;7.00;4.63;;;15.80;54.90;;;;;;5073168;28;20993;-86
2023/01/01 08:02:44;;;;;;;10.87;5.13;;;16.00;54.40;;;;;;5070196;28;20512;-87
2023/01/01 08:05:11;;;;;;;6.10;4.37;;;16.20;54.00;;;;;;5056061;28;20450;-86
2023/01/01 08:07:38;;;;;;;7.03;4.13;;;16.10;53.90;;;;;;5073204;28;20908;-87
2023/01/01 08:10:07;;;;;;;5.37;3.70;;;16.00;53.90;;;;;;5074358;28;20443;-84
2023/01/01 08:12:34;;;;;;;16.20;11.50;;;16.20;53.60;;;;;;5081824;28;20534;-86
2023/01/01 08:15:01;;;;;;;20.93;12.07;;;16.30;53.40;;;;;;5068760;27;20860;-86
2023/01/01 08:17:29;;;;;;;21.50;14.00;;;16.30;53.40;;;;;;5068427;28;20471;-88
2023/01/01 08:19:56;;;;;;;27.93;15.80;;;16.40;53.40;;;;;;5064648;27;20986;-88
2023/01/01 08:22:23;;;;;;;28.87;17.40;;;16.30;53.80;;;;;;5070152;28;20503;-87
2023/01/01 08:24:50;;;;;;;19.90;13.10;;;16.20;54.10;;;;;;5086628;27;20959;-87
2023/01/01 08:27:17;;;;;;;17.87;12.20;;;16.20;54.10;;;;;;5051789;28;20516;-87
2023/01/01 08:29:45;;;;;;;16.80;11.40;;;16.30;53.90;;;;;;5072821;28;21007;-90
2023/01/01 08:32:12;;;;;;;11.30;7.73;;;16.40;53.80;;;;;;5072090;28;20443;-87
2023/01/01 08:34:41;;;;;;;13.37;8.27;;;16.30;53.60;;;;;;5085261;27;20533;-87
2023/01/01 08:37:12;;;;;;;17.20;11.50;;;16.40;53.70;;;;;;5050669;28;20903;-88
2023/01/01 08:39:39;;;;;;;49.47;22.10;;;16.20;53.80;;;;;;5058848;28;20467;-88
2023/01/01 08:42:07;;;;;;;37.17;17.90;;;16.30;53.80;;;;;;5079626;28;20466;-89
2023/01/01 08:44:34;;;;;;;274.87;69.70;;;16.40;53.80;;;;;;5066431;28;20657;-87
2023/01/01 08:47:01;;;;;;;95.47;34.40;;;16.40;53.30;;;;;;5051430;28;20476;-88
2023/01/01 08:49:28;;;;;;;110.03;36.60;;;16.50;53.50;;;;;;5077669;28;20443;-90
2023/01/01 08:51:56;;;;;;;34.30;14.67;;;16.60;53.50;;;;;;5098966;28;20542;-88
2023/01/01 08:54:23;;;;;;;13.27;6.77;;;16.60;53.50;;;;;;5082729;28;20486;-86
2023/01/01 08:56:50;;;;;;;16.10;6.53;;;16.50;53.80;;;;;;5060503;27;20502;-90
2023/01/01 08:59:17;;;;;;;9.30;5.50;;;16.50;53.60;;;;;;5080935;28;20453;-90
2023/01/01 09:01:44;;;;;;;9.73;3.40;;;16.50;53.50;;;;;;5051657;28;20551;-91
2023/01/01 09:04:12;;;;;;;8.27;4.07;;;16.60;53.80;;;;;;5084057;28;21069;-89
2023/01/01 09:06:39;;;;;;;10.20;4.50;;;16.50;53.80;;;;;;5052711;28;20467;-90
2023/01/01 09:09:07;;;;;;;8.67;3.47;;;16.40;54.10;;;;;;5065745;28;20963;-88
2023/01/01 09:11:34;;;;;;;12.63;4.27;;;16.40;55.00;;;;;;5096201;28;20527;-89
2023/01/01 09:14:02;;;;;;;9.73;5.03;;;16.40;54.20;;;;;;5064093;27;20465;-89
2023/01/01 09:16:29;;;;;;;11.63;5.80;;;16.50;54.10;;;;;;5072183;28;20562;-89
2023/01/01 09:18:56;;;;;;;6.57;4.20;;;16.60;53.60;;;;;;5048043;28;20711;-89
2023/01/01 09:21:23;;;;;;;7.07;4.40;;;16.70;54.10;;;;;;5086078;28;20474;-89
2023/01/01 09:23:50;;;;;;;10.07;3.37;;;16.60;54.10;;;;;;5055491;28;20482;-88
2023/01/01 09:26:18;;;;;;;6.10;3.33;;;16.60;54.00;;;;;;5051689;28;20828;-89
2023/01/01 09:28:45;;;;;;;7.67;4.17;;;16.50;53.40;;;;;;5106327;27;20453;-90
2023/01/01 09:31:12;;;;;;;5.63;3.17;;;16.40;53.90;;;;;;5071160;28;20488;-89
2023/01/01 09:33:39;;;;;;;3.63;2.90;;;16.50;54.00;;;;;;5084957;28;20447;-90
2023/01/01 09:36:14;;;;;;;5.23;2.60;;;16.50;53.50;;;;;;5083878;28;20550;-87
2023/01/01 09:38:41;;;;;;;5.03;3.10;;;16.60;54.00;;;;;;5083861;28;20450;-89
2023/01/01 09:41:19;;;;;;;4.90;3.70;;;16.70;53.40;;;;;;5066460;28;20498;-88
2023/01/01 09:43:59;;;;;;;7.33;5.27;;;16.80;53.50;;;;;;5076957;28;20482;-88
2023/01/01 09:46:26;;;;;;;8.73;4.20;;;17.00;53.70;;;;;;5050415;28;20829;-88
2023/01/01 09:48:58;;;;;;;8.87;5.30;;;17.00;53.10;;;;;;5043193;28;21152;-88
2023/01/01 09:51:30;;;;;;;7.00;3.67;;;17.00;53.00;;;;;;5068354;28;20450;-89
2023/01/01 09:54:05;;;;;;;6.97;2.93;;;17.00;53.30;;;;;;5047321;28;20443;-89
2023/01/01 09:56:33;;;;;;;3.57;2.93;;;17.20;52.80;;;;;;5050204;28;20469;-87
2023/01/01 09:59:01;;;;;;;4.80;3.00;;;17.40;52.40;;;;;;5056448;28;20644;-89
2023/01/01 10:01:37;;;;;;;4.70;3.00;;;17.50;52.40;;;;;;5072093;28;20939;-89
2023/01/01 10:04:18;;;;;;;6.80;4.13;;;17.50;52.10;;;;;;5066271;28;20823;-89
2023/01/01 10:06:55;;;;;;;4.17;3.10;;;17.60;52.20;;;;;;5047698;28;20458;-89
2023/01/01 10:09:27;;;;;;;11.83;7.37;;;17.50;51.80;;;;;;5081083;28;20446;-89
2023/01/01 10:12:00;;;;;;;10.63;6.70;;;17.70;51.80;;;;;;5058518;28;20443;-88
2023/01/01 10:14:32;;;;;;;8.70;3.97;;;17.70;51.70;;;;;;5064287;28;20959;-88
2023/01/01 10:17:04;;;;;;;8.00;4.20;;;17.90;51.40;;;;;;5062461;28;20463;-88
2023/01/01 10:19:36;;;;;;;5.80;3.80;;;18.00;50.60;;;;;;5065500;28;20485;-89
2023/01/01 10:22:08;;;;;;;6.10;5.03;;;17.90;51.00;;;;;;5084475;28;20480;-87
2023/01/01 10:24:41;;;;;;;4.57;3.10;;;18.10;50.70;;;;;;5069580;28;20435;-87
2023/01/01 10:27:21;;;;;;;2.63;2.23;;;18.20;50.00;;;;;;5051801;28;21184;-89
2023/01/01 10:29:51;;;;;;;4.93;2.47;;;18.30;49.50;;;;;;5066005;28;20844;-88
2023/01/01 10:32:21;;;;;;;4.73;3.17;;;18.30;50.30;;;;;;5050965;28;20440;-88
2023/01/01 10:34:50;;;;;;;6.23;3.27;;;18.40;49.40;;;;;;5064057;28;20457;-88
2023/01/01 10:37:18;;;;;;;6.20;3.10;;;18.40;49.30;;;;;;5068712;28;20462;-88
2023/01/01 10:39:46;;;;;;;5.27;3.80;;;18.50;49.20;;;;;;5066101;28;20439;-87
2023/01/01 10:42:15;;;;;;;4.10;2.97;;;18.60;49.50;;;;;;5068488;28;21333;-89
2023/01/01 10:44:43;;;;;;;6.50;2.87;;;18.60;48.90;;;;;;5085762;28;20451;-89
2023/01/01 10:47:24;;;;;;;3.97;2.70;;;18.80;49.00;;;;;;5068967;28;20542;-88
2023/01/01 10:49:56;;;;;;;5.90;2.77;;;18.90;48.80;;;;;;5051500;28;21042;-88
2023/01/01 10:52:30;;;;;;;6.20;5.60;;;18.80;48.60;;;;;;5052808;28;20442;-88
2023/01/01 10:54:58;;;;;;;3.80;3.13;;;18.80;48.10;;;;;;5067825;28;20478;-89
2023/01/01 10:57:37;;;;;;;4.67;2.67;;;18.80;48.40;;;;;;5062152;28;20475;-89
2023/01/01 11:00:27;;;;;;;6.50;2.47;;;19.00;49.00;;;;;;5102716;28;20453;-88
2023/01/01 11:03:18;;;;;;;8.73;4.30;;;18.70;48.60;;;;;;5079470;28;20562;-88
2023/01/01 11:06:01;;;;;;;4.20;2.73;;;18.70;48.10;;;;;;5067663;28;20460;-88
2023/01/01 11:08:29;;;;;;;6.90;3.07;;;18.80;48.70;;;;;;5086270;28;20450;-88
2023/01/01 11:10:58;;;;;;;4.80;2.10;;;18.90;49.00;;;;;;5050281;28;20447;-88
2023/01/01 11:13:26;;;;;;;7.00;2.40;;;18.90;47.70;;;;;;5054509;28;20474;-87
2023/01/01 11:15:53;;;;;;;5.40;2.87;;;19.00;48.40;;;;;;5075966;28;20783;-88
2023/01/01 11:18:25;;;;;;;8.10;2.67;;;19.10;48.70;;;;;;5055118;28;20485;-88
2023/01/01 11:20:54;;;;;;;5.80;3.07;;;19.00;48.10;;;;;;5068492;28;20864;-88
2023/01/01 11:23:30;;;;;;;5.53;3.10;;;19.00;47.80;;;;;;5068202;28;20711;-86
2023/01/01 11:26:04;;;;;;;6.70;4.60;;;19.10;48.00;;;;;;5065027;28;20471;-87
2023/01/01 11:28:33;;;;;;;3.70;2.50;;;19.20;47.40;;;;;;5081619;28;20461;-88
2023/01/01 11:31:11;;;;;;;4.90;2.83;;;19.30;47.70;;;;;;5069082;28;20439;-87
2023/01/01 11:33:45;;;;;;;3.03;2.10;;;19.30;47.60;;;;;;5054702;28;20447;-88
2023/01/01 11:36:21;;;;;;;4.43;2.63;;;19.10;47.20;;;;;;5089175;28;20879;-87
2023/01/01 11:38:50;;;;;;;5.67;2.70;;;19.10;47.20;;;;;;5067871;28;20545;-88
2023/01/01 11:41:17;;;;;;;6.23;2.57;;;19.10;48.40;;;;;;5080640;28;20443;-87
2023/01/01 11:43:46;;;;;;;2.93;2.63;;;19.10;47.40;;;;;;5067252;28;20889;-86
2023/01/01 11:46:22;;;;;;;3.10;2.37;;;19.30;47.30;;;;;;5087992;28;20451;-87
2023/01/01 11:48:53;;;;;;;6.10;3.23;;;19.40;47.40;;;;;;5084777;28;20457;-88
2023/01/01 11:51:31;;;;;;;3.30;3.00;;;19.40;46.40;;;;;;5084704;28;20890;-88
2023/01/01 11:54:24;;;;;;;4.70;3.63;;;19.50;47.10;;;;;;5081215;28;20444;-87
2023/01/01 11:56:54;;;;;;;3.73;2.53;;;19.60;47.90;;;;;;5090075;27;21033;-88
2023/01/01 11:59:26;;;;;;;4.77;2.50;;;19.30;47.80;;;;;;5090340;28;20474;-88
2023/01/01 12:01:56;;;;;;;5.47;2.60;;;19.20;47.00;;;;;;5071696;28;20900;-87
2023/01/01 12:04:30;;;;;;;7.80;3.13;;;19.30;47.40;;;;;;5072981;28;20914;-86
2023/01/01 12:07:04;;;;;;;4.37;2.40;;;19.50;47.30;;;;;;5053589;28;20499;-89
2023/01/01 12:09:40;;;;;;;6.80;2.83;;;19.60;47.60;;;;;;5073405;28;20547;-87
2023/01/01 12:12:13;;;;;;;3.90;3.00;;;19.80;47.20;;;;;;5089463;28;20459;-87
2023/01/01 12:14:47;;;;;;;4.90;3.00;;;19.80;47.50;;;;;;5071829;28;20439;-87
2023/01/01 12:17:20;;;;;;;7.30;3.00;;;19.70;48.10;;;;;;5088570;28;20993;-87
2023/01/01 12:19:59;;;;;;;7.13;3.17;;;19.70;47.10;;;;;;5071500;28;20435;-86
2023/01/01 12:22:26;;;;;;;6.57;4.00;;;19.80;47.60;;;;;;5059505;28;20459;-86
2023/01/01 12:24:54;;;;;;;10.30;4.17;;;19.70;47.40;;;;;;5104243;28;20453;-89
2023/01/01 12:27:36;;;;;;;3.93;3.07;;;19.70;48.40;;;;;;5072600;28;20463;-87
2023/01/01 12:30:11;;;;;;;3.87;2.40;;;19.60;47.00;;;;;;5074225;27;20460;-87
2023/01/01 12:33:08;;;;;;;7.37;2.30;;;19.60;47.50;;;;;;5067300;28;20430;-87
2023/01/01 12:35:47;;;;;;;7.50;2.40;;;19.60;47.40;;;;;;5067132;28;20481;-87
2023/01/01 12:38:28;;;;;;;5.00;1.73;;;19.70;47.50;;;;;;5056209;27;20492;-87
2023/01/01 12:41:05;;;;;;;3.93;2.63;;;19.60;47.10;;;;;;5071971;28;20438;-87
2023/01/01 12:43:43;;;;;;;5.13;2.50;;;19.60;47.20;;;;;;5055457;28;20542;-87
2023/01/01 12:46:32;;;;;;;8.17;3.30;;;19.80;47.20;;;;;;5067649;28;20499;-87
2023/01/01 12:49:35;;;;;;;5.53;2.60;;;19.40;46.50;;;;;;5089977;27;20944;-87
2023/01/01 12:52:16;;;;;;;8.23;2.47;;;19.40;48.20;;;;;;5074629;28;20443;-87
2023/01/01 12:55:21;;;;;;;5.20;2.20;;;19.30;48.10;;;;;;5074543;28;20447;-86
2023/01/01 12:57:51;;;;;;;8.67;3.33;;;19.50;47.70;;;;;;5061077;28;20480;-87